Avery, Iowa
Current Conditions -  °F | °C
As of 3:06 PM on Tuesday 27 Jan 2015 (Local Time) from KOTM Reporting Station
Scattered Clouds Scattered Clouds  
Wind Chill: 34°   Ceiling: Unl
Heat Index: 39°   Visibility: 10mi
Dew Point: 30°   Wind: 7mph
Humidity: 70%   Direction: 60°ENE
Pressure: 30.16"   Gusts: NA
Location:  41.0299°N, 92.7795°W
Report Text: KOTM 272106Z AUTO 06006KT 10SM SCT020 04/M01 A3016 RMK AO2 T00391011
Loading
Personal Weather Stations






























Interactive Weather Map New forecast layout! Learn more

10-Day Weather Forecast

Advertisements
Track Severe Weather on mobile